createdAt,value
2023-02-15T00:01:49.221Z,34.45
2023-02-15T00:04:21.042Z,31.92
2023-02-15T00:06:48.212Z,31.20
2023-02-15T00:09:14.562Z,36.05
2023-02-15T00:11:41.770Z,31.90
2023-02-15T00:14:17.541Z,31.55
2023-02-15T00:16:45.055Z,30.10
2023-02-15T00:19:13.523Z,30.05
2023-02-15T00:21:40.383Z,30.13
2023-02-15T00:24:09.010Z,32.10
2023-02-15T00:26:36.275Z,31.63
2023-02-15T00:29:02.856Z,33.25
2023-02-15T00:31:31.776Z,27.00
2023-02-15T00:34:11.360Z,31.23
2023-02-15T00:36:37.917Z,31.63
2023-02-15T00:39:05.494Z,28.48
2023-02-15T00:41:32.968Z,30.83
2023-02-15T00:43:59.385Z,30.60
2023-02-15T00:46:25.804Z,27.98
2023-02-15T00:48:52.173Z,25.65
2023-02-15T00:51:18.633Z,31.20
2023-02-15T00:53:45.269Z,26.52
2023-02-15T00:56:11.841Z,28.40
2023-02-15T00:58:38.197Z,25.80
2023-02-15T01:01:14.695Z,26.52
2023-02-15T01:06:11.591Z,29.77
2023-02-15T01:08:38.284Z,29.23
2023-02-15T01:11:10.020Z,28.33
2023-02-15T01:13:37.073Z,30.85
2023-02-15T01:16:05.345Z,32.50
2023-02-15T01:18:35.770Z,27.60
2023-02-15T01:21:14.613Z,32.63
2023-02-15T01:23:42.466Z,38.20
2023-02-15T01:26:10.345Z,27.65
2023-02-15T01:28:37.359Z,30.83
2023-02-15T01:31:16.758Z,26.45
2023-02-15T01:33:43.248Z,29.30
2023-02-15T01:36:10.383Z,32.67
2023-02-15T01:38:37.437Z,31.25
2023-02-15T01:41:22.745Z,28.67
2023-02-15T01:43:57.932Z,28.92
2023-02-15T01:46:41.386Z,29.42
2023-02-15T01:49:20.386Z,29.83
2023-02-15T01:51:50.045Z,28.80
2023-02-15T01:54:25.427Z,28.58
2023-02-15T01:56:51.857Z,30.35
2023-02-15T01:59:23.890Z,28.02
2023-02-15T02:01:53.143Z,34.17
2023-02-15T02:04:33.646Z,29.27
2023-02-15T02:07:00.930Z,31.90
2023-02-15T02:09:27.790Z,29.58
2023-02-15T02:11:55.261Z,29.60
2023-02-15T02:14:22.469Z,30.38
2023-02-15T02:17:19.275Z,26.67
2023-02-15T02:20:17.508Z,30.13
2023-02-15T02:23:18.078Z,32.50
2023-02-15T02:26:03.239Z,31.90
2023-02-15T02:28:54.956Z,32.47
2023-02-15T02:31:30.454Z,31.13
2023-02-15T02:34:06.681Z,28.90
2023-02-15T02:36:40.630Z,31.52
2023-02-15T02:39:30.301Z,36.22
2023-02-15T02:42:40.643Z,33.50
2023-02-15T02:45:18.104Z,31.38
2023-02-15T02:47:49.857Z,28.20
2023-02-15T02:50:22.344Z,30.30
2023-02-15T02:52:53.854Z,35.08
2023-02-15T02:55:26.505Z,34.15
2023-02-15T02:57:56.560Z,30.80
2023-02-15T03:00:26.512Z,31.23
2023-02-15T03:02:59.278Z,31.50
2023-02-15T03:05:28.703Z,33.53
2023-02-15T03:07:57.832Z,33.97
2023-02-15T03:10:25.390Z,34.25
2023-02-15T03:12:53.015Z,33.17
2023-02-15T03:15:26.243Z,34.85
2023-02-15T03:17:58.414Z,35.17
2023-02-15T03:20:37.307Z,34.72
2023-02-15T03:23:12.015Z,32.33
2023-02-15T03:25:42.498Z,33.90
2023-02-15T03:28:13.738Z,29.58
2023-02-15T03:30:44.277Z,31.70
2023-02-15T03:33:11.724Z,34.60
2023-02-15T03:36:02.069Z,32.92
2023-02-15T03:38:49.050Z,29.55
2023-02-15T03:41:17.939Z,33.95
2023-02-15T03:43:59.191Z,32.45
2023-02-15T03:46:42.213Z,33.05
2023-02-15T03:49:15.104Z,32.63
2023-02-15T03:51:44.986Z,32.80
2023-02-15T03:54:36.110Z,30.15
2023-02-15T03:57:21.228Z,29.50
2023-02-15T04:00:06.300Z,36.00
2023-02-15T04:02:40.917Z,33.90
2023-02-15T04:05:07.280Z,32.17
2023-02-15T04:07:33.608Z,32.35
2023-02-15T04:10:18.704Z,33.22
2023-02-15T04:12:45.004Z,33.85
2023-02-15T04:15:33.040Z,37.88
2023-02-15T04:17:59.359Z,36.97
2023-02-15T04:20:44.315Z,32.38
2023-02-15T04:23:28.970Z,35.58
2023-02-15T04:25:55.314Z,33.45
2023-02-15T04:28:21.682Z,31.92
2023-02-15T04:30:48.325Z,33.55
2023-02-15T04:33:14.643Z,31.67
2023-02-15T04:35:41.015Z,34.28
2023-02-15T04:38:07.405Z,31.45
2023-02-15T04:40:33.726Z,33.58
2023-02-15T04:43:00.068Z,34.67
2023-02-15T04:45:27.918Z,34.22
2023-02-15T04:47:54.345Z,34.78
2023-02-15T04:50:20.745Z,34.90
2023-02-15T04:52:47.538Z,36.35
2023-02-15T04:55:14.957Z,36.88
2023-02-15T04:57:41.339Z,36.22
2023-02-15T05:00:09.577Z,33.53
2023-02-15T05:02:35.901Z,31.40
2023-02-15T05:05:02.208Z,36.20
2023-02-15T05:07:28.527Z,42.15
2023-02-15T05:09:54.835Z,39.83
2023-02-15T05:12:21.500Z,37.58
2023-02-15T05:14:47.812Z,35.38
2023-02-15T05:17:14.128Z,37.92
2023-02-15T05:19:40.445Z,32.53
2023-02-15T05:22:06.804Z,39.60
2023-02-15T05:24:51.810Z,38.20
2023-02-15T05:27:36.683Z,37.97
2023-02-15T05:30:03.500Z,37.33
2023-02-15T05:32:29.950Z,36.85
2023-02-15T05:34:56.302Z,40.10
2023-02-15T05:37:22.636Z,40.88
2023-02-15T05:39:48.965Z,36.08
2023-02-15T05:42:15.245Z,39.72
2023-02-15T05:44:41.569Z,35.50
2023-02-15T05:47:08.369Z,39.80
2023-02-15T05:49:35.047Z,37.40
2023-02-15T05:52:01.335Z,40.92
2023-02-15T05:54:28.446Z,37.75
2023-02-15T05:56:54.844Z,41.53
2023-02-15T05:59:21.198Z,40.20
2023-02-15T06:01:47.529Z,39.75
2023-02-15T06:04:14.172Z,35.55
2023-02-15T06:06:40.749Z,37.47
2023-02-15T06:09:07.141Z,39.88
2023-02-15T06:11:33.464Z,36.50
2023-02-15T06:13:59.804Z,36.05
2023-02-15T06:16:26.220Z,43.75
2023-02-15T06:18:53.806Z,35.25
2023-02-15T06:21:20.275Z,39.90
2023-02-15T06:23:46.905Z,39.83
2023-02-15T06:26:13.260Z,40.33
2023-02-15T06:28:39.576Z,36.88
2023-02-15T06:31:06.330Z,36.20
2023-02-15T06:33:34.649Z,36.08
2023-02-15T06:36:02.914Z,38.35
2023-02-15T06:38:29.426Z,39.72
2023-02-15T06:40:55.740Z,44.35
2023-02-15T06:43:22.151Z,38.10
2023-02-15T06:45:48.741Z,41.42
2023-02-15T06:48:15.253Z,43.67
2023-02-15T06:50:41.614Z,41.45
2023-02-15T06:53:07.950Z,44.03
2023-02-15T06:55:34.277Z,38.42
2023-02-15T06:58:00.587Z,43.90
2023-02-15T07:00:26.927Z,38.13
2023-02-15T07:02:59.392Z,38.72
2023-02-15T07:05:31.549Z,42.00
2023-02-15T07:08:01.415Z,39.05
2023-02-15T07:10:28.322Z,38.90
2023-02-15T07:12:54.697Z,37.88
2023-02-15T07:15:22.671Z,39.33
2023-02-15T07:17:49.922Z,37.33
2023-02-15T07:20:20.405Z,41.28
2023-02-15T07:22:46.872Z,37.88
2023-02-15T07:25:13.966Z,40.78
2023-02-15T07:27:41.130Z,36.67
2023-02-15T07:30:11.170Z,38.38
2023-02-15T07:32:37.755Z,42.92
2023-02-15T07:35:04.334Z,38.75
2023-02-15T07:37:30.664Z,36.65
2023-02-15T07:39:56.965Z,33.50
2023-02-15T07:42:23.701Z,37.65
2023-02-15T07:44:50.058Z,39.92
2023-02-15T07:47:16.429Z,37.30
2023-02-15T07:49:42.990Z,38.50
2023-02-15T07:52:09.373Z,34.97
2023-02-15T07:54:35.768Z,36.30
2023-02-15T07:57:02.680Z,37.22
2023-02-15T07:59:29.001Z,38.50
2023-02-15T08:01:57.125Z,31.90
2023-02-15T08:06:57.280Z,34.80
2023-02-15T08:09:23.702Z,36.13
2023-02-15T08:11:50.570Z,37.00
2023-02-15T08:14:22.868Z,35.97
2023-02-15T08:16:55.657Z,35.63
2023-02-15T08:19:25.155Z,36.75
2023-02-15T08:21:55.462Z,31.77
2023-02-15T08:24:23.315Z,36.80
2023-02-15T08:26:50.319Z,39.42
2023-02-15T08:29:18.885Z,33.88
2023-02-15T08:31:46.630Z,30.77
2023-02-15T08:34:16.297Z,36.75
2023-02-15T08:36:42.972Z,34.70
2023-02-15T08:39:09.306Z,35.40
2023-02-15T08:41:37.311Z,32.05
2023-02-15T08:44:06.709Z,33.03
2023-02-15T08:46:35.661Z,33.40
2023-02-15T08:49:02.975Z,31.70
2023-02-15T08:51:32.219Z,33.53
2023-02-15T08:54:01.229Z,32.97
2023-02-15T08:56:30.990Z,33.83
2023-02-15T08:58:57.715Z,33.55
2023-02-15T09:01:27.263Z,34.30
2023-02-15T09:04:00.760Z,33.80
2023-02-15T09:06:28.055Z,34.22
2023-02-15T09:08:55.718Z,39.22
2023-02-15T09:11:24.845Z,32.70
2023-02-15T09:13:57.539Z,32.55
2023-02-15T09:16:25.715Z,32.25
2023-02-15T09:18:52.715Z,31.52
2023-02-15T09:21:22.522Z,30.92
2023-02-15T09:23:51.630Z,36.72
2023-02-15T09:26:23.566Z,31.30
2023-02-15T09:28:54.326Z,34.88
2023-02-15T09:31:23.167Z,34.20
2023-02-15T09:33:50.630Z,33.20
2023-02-15T09:36:23.247Z,32.40
2023-02-15T09:38:57.227Z,32.78
2023-02-15T09:41:39.603Z,31.77
2023-02-15T09:44:05.873Z,31.13
2023-02-15T09:47:03.919Z,30.48
2023-02-15T09:49:43.410Z,31.25
2023-02-15T09:52:36.344Z,30.42
2023-02-15T09:55:21.768Z,33.67
2023-02-15T09:58:03.333Z,34.47
2023-02-15T10:00:50.348Z,31.25
2023-02-15T10:03:57.130Z,42.83
2023-02-15T10:06:47.955Z,34.13
2023-02-15T10:09:44.844Z,35.53
2023-02-15T10:12:18.396Z,29.45
2023-02-15T10:15:03.448Z,37.60
2023-02-15T10:18:04.113Z,31.50
2023-02-15T10:20:55.099Z,30.63
2023-02-15T10:23:42.881Z,29.58
2023-02-15T10:26:27.002Z,31.42
2023-02-15T10:29:01.709Z,30.30
2023-02-15T10:31:36.000Z,30.48
2023-02-15T10:34:31.506Z,29.75
2023-02-15T10:37:09.859Z,29.50
2023-02-15T10:39:49.102Z,31.83
2023-02-15T10:42:28.852Z,28.65
2023-02-15T10:45:09.699Z,19.58
2023-02-15T10:48:03.529Z,27.55
2023-02-15T10:50:42.829Z,31.27
2023-02-15T10:53:16.807Z,30.75
2023-02-15T10:55:53.155Z,29.90
2023-02-15T10:58:38.479Z,31.73
2023-02-15T11:01:25.748Z,35.22
2023-02-15T11:04:02.064Z,40.60
2023-02-15T11:06:29.059Z,29.95
2023-02-15T11:09:01.820Z,27.50
2023-02-15T11:11:36.969Z,29.88
2023-02-15T11:14:15.929Z,33.38
2023-02-15T11:16:47.584Z,28.92
2023-02-15T11:19:24.904Z,29.15
2023-02-15T11:21:55.936Z,36.03
2023-02-15T11:27:00.955Z,30.50
2023-02-15T11:29:37.317Z,30.33
2023-02-15T11:32:19.178Z,32.60
2023-02-15T11:34:56.817Z,32.28
2023-02-15T11:37:34.737Z,42.47
2023-02-15T11:40:04.206Z,29.60
2023-02-15T11:42:32.564Z,31.17
2023-02-15T11:45:31.117Z,28.95
2023-02-15T11:47:59.024Z,30.27
2023-02-15T11:50:29.343Z,31.48
2023-02-15T11:53:03.160Z,31.50
2023-02-15T11:55:30.608Z,27.92
2023-02-15T11:58:31.224Z,33.45
2023-02-15T12:01:08.817Z,28.67
2023-02-15T12:03:46.091Z,29.83
2023-02-15T12:06:21.597Z,30.70
2023-02-15T12:08:55.284Z,35.17
2023-02-15T12:11:30.075Z,29.42
2023-02-15T12:13:59.502Z,29.77
2023-02-15T12:16:28.500Z,29.30
2023-02-15T12:18:58.524Z,25.90
2023-02-15T12:21:31.240Z,35.60
2023-02-15T12:24:04.849Z,28.55
2023-02-15T12:26:35.029Z,29.40
2023-02-15T12:29:17.050Z,28.08
2023-02-15T12:31:48.868Z,29.80
2023-02-15T12:34:28.276Z,33.13
2023-02-15T12:37:01.475Z,32.25
2023-02-15T12:39:32.911Z,30.60
2023-02-15T12:42:16.326Z,29.92
2023-02-15T12:44:55.583Z,29.60
2023-02-15T12:47:28.925Z,30.95
2023-02-15T12:50:17.786Z,24.88
2023-02-15T12:52:46.556Z,27.63
2023-02-15T12:55:26.271Z,28.35
2023-02-15T12:58:19.008Z,25.52
2023-02-15T13:00:46.672Z,29.33
2023-02-15T13:03:19.063Z,30.63
2023-02-15T13:05:55.038Z,32.22
2023-02-15T13:08:27.997Z,28.55
2023-02-15T13:10:55.648Z,32.75
2023-02-15T13:13:35.410Z,32.53
2023-02-15T13:16:06.788Z,30.85
2023-02-15T13:18:38.068Z,27.83
2023-02-15T13:21:13.146Z,28.08
2023-02-15T13:23:46.019Z,31.10
2023-02-15T13:26:19.815Z,32.88
2023-02-15T13:28:59.206Z,27.08
2023-02-15T13:31:29.427Z,32.38
2023-02-15T13:34:03.378Z,30.30
2023-02-15T13:36:44.213Z,38.03
2023-02-15T13:39:21.983Z,37.65
2023-02-15T13:42:16.522Z,33.60
2023-02-15T13:45:01.996Z,29.63
2023-02-15T13:47:37.040Z,34.13
2023-02-15T13:50:29.921Z,29.33
2023-02-15T13:53:08.480Z,30.92
2023-02-15T13:55:45.016Z,32.83
2023-02-15T13:58:20.614Z,30.95
2023-02-15T14:01:10.018Z,27.05
2023-02-15T14:04:02.867Z,29.45
2023-02-15T14:07:03.311Z,31.80
2023-02-15T14:10:19.754Z,30.03
2023-02-15T14:13:07.962Z,25.80
2023-02-15T14:15:48.006Z,26.15
2023-02-15T14:18:40.741Z,35.38
2023-02-15T14:21:10.054Z,27.83
2023-02-15T14:23:42.358Z,28.38
2023-02-15T14:26:33.614Z,29.70
2023-02-15T14:31:41.544Z,31.30
2023-02-15T14:34:21.879Z,30.10
2023-02-15T14:36:49.772Z,34.38
2023-02-15T14:39:53.829Z,34.15
2023-02-15T14:42:49.056Z,29.40
2023-02-15T14:45:28.643Z,28.55
2023-02-15T14:48:05.148Z,29.05
2023-02-15T14:50:31.443Z,31.63
2023-02-15T14:53:36.822Z,28.92
2023-02-15T14:56:14.421Z,35.72
2023-02-15T14:58:57.157Z,29.23
2023-02-15T15:01:28.546Z,30.70
2023-02-15T15:03:59.374Z,30.42
2023-02-15T15:06:36.142Z,33.55
2023-02-15T15:09:28.764Z,32.20
2023-02-15T15:12:14.350Z,30.77
2023-02-15T15:14:44.169Z,36.70
2023-02-15T15:17:12.592Z,31.83
2023-02-15T15:19:52.604Z,30.92
2023-02-15T15:22:30.763Z,34.50
2023-02-15T15:25:12.403Z,39.92
2023-02-15T15:27:55.746Z,35.90
2023-02-15T15:30:22.105Z,30.98
2023-02-15T15:32:54.512Z,31.25
2023-02-15T15:35:45.885Z,33.25
2023-02-15T15:38:57.263Z,32.28
2023-02-15T15:41:35.354Z,32.97
2023-02-15T15:44:27.003Z,29.50
2023-02-15T15:47:51.268Z,31.95
2023-02-15T15:50:21.447Z,36.03
2023-02-15T15:52:53.007Z,31.05
2023-02-15T15:55:23.740Z,35.60
2023-02-15T15:58:00.677Z,37.03
2023-02-15T16:00:33.948Z,27.35
2023-02-15T16:03:00.630Z,32.45
2023-02-15T16:05:27.062Z,31.00
2023-02-15T16:07:53.440Z,37.30
2023-02-15T16:10:24.288Z,35.83
2023-02-15T16:12:52.035Z,37.50
2023-02-15T16:15:21.711Z,35.97
2023-02-15T16:17:55.676Z,30.90
2023-02-15T16:20:37.393Z,33.42
2023-02-15T16:23:37.544Z,29.58
2023-02-15T16:26:45.773Z,28.08
2023-02-15T16:29:17.689Z,30.85
2023-02-15T16:31:44.818Z,35.63
2023-02-15T16:34:18.577Z,30.00
2023-02-15T16:36:44.900Z,31.83
2023-02-15T16:39:19.792Z,33.67
2023-02-15T16:41:47.838Z,36.35
2023-02-15T16:44:19.064Z,31.63
2023-02-15T16:46:50.569Z,34.95
2023-02-15T16:49:27.088Z,31.80
2023-02-15T16:52:06.853Z,31.10
2023-02-15T16:54:34.719Z,30.65
2023-02-15T16:57:01.177Z,35.28
2023-02-15T16:59:47.882Z,29.67
2023-02-15T17:02:55.217Z,32.10
2023-02-15T17:05:22.158Z,36.50
2023-02-15T17:08:06.773Z,35.78
2023-02-15T17:10:42.439Z,26.02
2023-02-15T17:13:16.811Z,35.53
2023-02-15T17:15:45.573Z,30.60
2023-02-15T17:18:23.095Z,32.53
2023-02-15T17:20:51.713Z,30.50
2023-02-15T17:24:01.897Z,30.15
2023-02-15T17:26:33.600Z,33.10
2023-02-15T17:29:10.443Z,31.50
2023-02-15T17:31:37.019Z,33.78
2023-02-15T17:34:04.077Z,35.67
2023-02-15T17:36:32.196Z,36.60
2023-02-15T17:38:58.539Z,33.22
2023-02-15T17:41:34.970Z,39.40
2023-02-15T17:44:08.294Z,30.85
2023-02-15T17:46:37.897Z,60.63
2023-02-15T17:49:04.911Z,39.83
2023-02-15T17:51:32.899Z,36.40
2023-02-15T17:54:17.938Z,35.97
2023-02-15T17:56:44.270Z,35.90
2023-02-15T17:59:12.300Z,32.72
2023-02-15T18:02:09.314Z,32.55
2023-02-15T18:04:56.070Z,37.08
2023-02-15T18:07:41.043Z,38.10
2023-02-15T18:10:34.601Z,38.03
2023-02-15T18:13:00.924Z,35.92
2023-02-15T18:15:27.680Z,36.08
2023-02-15T18:17:54.931Z,30.83
2023-02-15T18:20:24.908Z,30.98
2023-02-15T18:22:52.266Z,34.35
2023-02-15T18:25:21.479Z,35.28
2023-02-15T18:27:48.084Z,36.17
2023-02-15T18:30:20.281Z,40.50
2023-02-15T18:32:51.203Z,37.00
2023-02-15T18:35:23.950Z,37.30
2023-02-15T18:37:52.150Z,39.13
2023-02-15T18:40:25.509Z,42.45
2023-02-15T18:42:52.076Z,38.80
2023-02-15T18:45:21.844Z,40.88
2023-02-15T18:47:48.532Z,41.38
2023-02-15T18:50:16.811Z,42.40
2023-02-15T18:52:46.228Z,44.35
2023-02-15T18:55:27.743Z,47.65
2023-02-15T18:57:56.441Z,48.78
2023-02-15T19:00:28.378Z,61.72
2023-02-15T19:02:55.668Z,56.83
2023-02-15T19:05:22.851Z,38.30
2023-02-15T19:07:50.149Z,42.30
2023-02-15T19:10:22.625Z,58.53
2023-02-15T19:12:50.138Z,38.80
2023-02-15T19:15:18.838Z,42.85
2023-02-15T19:17:45.297Z,41.95
2023-02-15T19:20:17.539Z,40.97
2023-02-15T19:22:46.576Z,51.80
2023-02-15T19:25:18.987Z,32.65
2023-02-15T19:27:46.630Z,41.60
2023-02-15T19:30:23.987Z,43.15
2023-02-15T19:32:50.347Z,40.70
2023-02-15T19:35:21.801Z,43.42
2023-02-15T19:37:53.482Z,40.35
2023-02-15T19:40:25.952Z,41.58
2023-02-15T19:42:52.903Z,41.70
2023-02-15T19:45:22.033Z,37.63
2023-02-15T19:47:48.722Z,38.83
2023-02-15T19:50:17.714Z,42.00
2023-02-15T19:52:44.890Z,41.78
2023-02-15T19:55:30.794Z,71.00
2023-02-15T19:57:58.480Z,60.63
2023-02-15T20:00:27.816Z,60.50
2023-02-15T20:02:55.861Z,51.30
2023-02-15T20:05:22.940Z,64.65
2023-02-15T20:07:52.217Z,73.35
2023-02-15T20:10:21.156Z,131.07
2023-02-15T20:12:47.794Z,55.35
2023-02-15T20:15:27.328Z,92.60
2023-02-15T20:17:55.160Z,146.63
2023-02-15T20:20:23.539Z,167.40
2023-02-15T20:22:51.693Z,240.23
2023-02-15T20:25:26.348Z,160.38
2023-02-15T20:27:53.817Z,60.80
2023-02-15T20:30:25.498Z,51.55
2023-02-15T20:32:51.916Z,50.88
2023-02-15T20:35:20.551Z,70.28
2023-02-15T20:37:49.660Z,44.97
2023-02-15T20:40:19.871Z,46.78
2023-02-15T20:42:46.601Z,47.10
2023-02-15T20:45:23.890Z,43.95
2023-02-15T20:47:51.339Z,43.58
2023-02-15T20:50:30.251Z,39.65
2023-02-15T20:52:58.716Z,40.03
2023-02-15T20:55:30.340Z,44.92
2023-02-15T20:57:58.260Z,42.50
2023-02-15T21:00:28.226Z,52.55
2023-02-15T21:02:57.349Z,47.47
2023-02-15T21:05:26.925Z,40.75
2023-02-15T21:07:54.141Z,42.80
2023-02-15T21:10:23.736Z,45.95
2023-02-15T21:12:51.906Z,42.85
2023-02-15T21:15:34.361Z,42.72
2023-02-15T21:18:06.900Z,43.05
2023-02-15T21:20:34.999Z,43.50
2023-02-15T21:23:04.616Z,42.15
2023-02-15T21:25:36.439Z,43.67
2023-02-15T21:28:03.971Z,43.00
2023-02-15T21:30:30.432Z,43.00
2023-02-15T21:32:56.838Z,48.42
2023-02-15T21:35:23.227Z,42.08
2023-02-15T21:37:51.257Z,43.08
2023-02-15T21:40:27.672Z,40.10
2023-02-15T21:43:12.880Z,39.95
2023-02-15T21:45:58.116Z,38.97
2023-02-15T21:48:24.471Z,37.15
2023-02-15T21:51:09.894Z,44.85
2023-02-15T21:53:45.879Z,38.42
2023-02-15T21:56:16.043Z,42.97
2023-02-15T21:58:42.890Z,36.88
2023-02-15T22:01:25.862Z,43.55
2023-02-15T22:03:54.680Z,49.38
2023-02-15T22:06:21.434Z,40.17
2023-02-15T22:08:47.978Z,41.08
2023-02-15T22:11:17.472Z,46.30
2023-02-15T22:13:45.037Z,48.00
2023-02-15T22:16:19.625Z,33.13
2023-02-15T22:18:46.608Z,44.70
2023-02-15T22:21:13.114Z,43.30
2023-02-15T22:23:39.412Z,40.60
2023-02-15T22:26:09.047Z,42.88
2023-02-15T22:28:38.511Z,43.28
2023-02-15T22:31:10.468Z,46.30
2023-02-15T22:33:36.919Z,46.13
2023-02-15T22:36:03.730Z,43.30
2023-02-15T22:38:30.407Z,45.28
2023-02-15T22:41:03.582Z,41.13
2023-02-15T22:43:41.894Z,45.45
2023-02-15T22:46:15.694Z,49.78
2023-02-15T22:48:43.664Z,43.70
2023-02-15T22:51:19.909Z,45.25
2023-02-15T22:53:49.401Z,45.08
2023-02-15T22:56:20.208Z,46.90
2023-02-15T22:58:50.389Z,43.60
2023-02-15T23:01:24.733Z,44.57
2023-02-15T23:03:51.367Z,47.83
2023-02-15T23:06:17.708Z,49.08
2023-02-15T23:08:44.049Z,45.60
2023-02-15T23:11:11.184Z,43.92
2023-02-15T23:13:37.829Z,46.00
2023-02-15T23:16:06.208Z,42.72
2023-02-15T23:18:36.822Z,42.92
2023-02-15T23:21:06.726Z,45.28
2023-02-15T23:23:37.105Z,45.88
2023-02-15T23:26:04.876Z,51.43
2023-02-15T23:28:36.950Z,46.33
2023-02-15T23:31:15.679Z,47.85
2023-02-15T23:33:42.310Z,45.67
2023-02-15T23:36:39.142Z,44.53
2023-02-15T23:39:33.505Z,41.80
2023-02-15T23:42:01.997Z,49.60
2023-02-15T23:44:30.054Z,46.55
2023-02-15T23:46:58.046Z,49.00
2023-02-15T23:49:24.705Z,51.78
2023-02-15T23:51:55.718Z,43.35
2023-02-15T23:54:25.096Z,41.63
2023-02-15T23:56:55.090Z,46.88
2023-02-15T23:59:26.562Z,40.63
